sensor_id;sensor_type;location;lat;lon;timestamp;pressure;altitude;pressure_sealevel;temperature;humidity
62703;BME280;66022;50.448;18.122;2023-07-08T00:03:59;99804.68;;;16.55;66.46
62703;BME280;66022;50.448;18.122;2023-07-08T00:08:01;99802.81;;;16.45;67.37
62703;BME280;66022;50.448;18.122;2023-07-08T00:12:07;99800.86;;;16.40;66.96
62703;BME280;66022;50.448;18.122;2023-07-08T00:16:08;99798.07;;;16.33;72.95
62703;BME280;66022;50.448;18.122;2023-07-08T00:20:11;99796.17;;;16.30;67.24
62703;BME280;66022;50.448;18.122;2023-07-08T00:24:09;99795.70;;;16.28;67.12
62703;BME280;66022;50.448;18.122;2023-07-08T00:28:15;99795.19;;;16.24;67.46
62703;BME280;66022;50.448;18.122;2023-07-08T00:32:14;99795.54;;;16.23;67.81
62703;BME280;66022;50.448;18.122;2023-07-08T00:36:15;99794.95;;;16.16;74.91
62703;BME280;66022;50.448;18.122;2023-07-08T00:40:17;99794.35;;;16.14;68.51
62703;BME280;66022;50.448;18.122;2023-07-08T00:44:19;99793.70;;;16.11;68.33
62703;BME280;66022;50.448;18.122;2023-07-08T00:48:25;99792.75;;;16.05;69.53
62703;BME280;66022;50.448;18.122;2023-07-08T00:52:24;99792.78;;;16.01;68.45
62703;BME280;66022;50.448;18.122;2023-07-08T00:56:26;99793.69;;;15.95;74.65
62703;BME280;66022;50.448;18.122;2023-07-08T01:00:27;99793.88;;;15.91;68.39
62703;BME280;66022;50.448;18.122;2023-07-08T01:04:34;99794.89;;;15.85;69.15
62703;BME280;66022;50.448;18.122;2023-07-08T01:08:32;99794.98;;;15.67;70.98
62703;BME280;66022;50.448;18.122;2023-07-08T01:12:35;99794.57;;;15.54;69.18
62703;BME280;66022;50.448;18.122;2023-07-08T01:16:36;99793.59;;;15.43;76.03
62703;BME280;66022;50.448;18.122;2023-07-08T01:20:39;99792.79;;;15.39;70.55
62703;BME280;66022;50.448;18.122;2023-07-08T01:24:40;99791.88;;;15.36;70.31
62703;BME280;66022;50.448;18.122;2023-07-08T01:28:42;99789.76;;;15.33;71.54
62703;BME280;66022;50.448;18.122;2023-07-08T01:32:55;99788.98;;;15.33;69.41
62703;BME280;66022;50.448;18.122;2023-07-08T01:36:52;99788.16;;;15.28;74.18
62703;BME280;66022;50.448;18.122;2023-07-08T01:40:49;99787.77;;;15.22;70.65
62703;BME280;66022;50.448;18.122;2023-07-08T01:44:50;99787.36;;;15.16;70.47
62703;BME280;66022;50.448;18.122;2023-07-08T01:48:56;99785.97;;;15.12;71.42
62703;BME280;66022;50.448;18.122;2023-07-08T01:52:53;99784.40;;;15.10;70.67
62703;BME280;66022;50.448;18.122;2023-07-08T01:56:56;99783.95;;;15.12;72.06
62703;BME280;66022;50.448;18.122;2023-07-08T02:00:58;99781.75;;;15.14;69.34
62703;BME280;66022;50.448;18.122;2023-07-08T02:05:00;99780.78;;;15.15;69.72
62703;BME280;66022;50.448;18.122;2023-07-08T02:09:02;99780.38;;;15.15;70.87
62703;BME280;66022;50.448;18.122;2023-07-08T02:13:04;99780.39;;;15.14;70.48
62703;BME280;66022;50.448;18.122;2023-07-08T02:17:06;99781.19;;;15.11;73.37
62703;BME280;66022;50.448;18.122;2023-07-08T02:21:07;99780.63;;;15.10;71.81
62703;BME280;66022;50.448;18.122;2023-07-08T02:25:10;99780.82;;;15.09;71.17
62703;BME280;66022;50.448;18.122;2023-07-08T02:29:12;99781.37;;;15.07;72.96
62703;BME280;66022;50.448;18.122;2023-07-08T02:33:14;99782.00;;;15.06;72.10
62703;BME280;66022;50.448;18.122;2023-07-08T02:37:19;99782.70;;;15.03;74.50
62703;BME280;66022;50.448;18.122;2023-07-08T02:41:18;99783.18;;;15.02;72.53
62703;BME280;66022;50.448;18.122;2023-07-08T02:45:20;99782.53;;;15.00;71.93
62703;BME280;66022;50.448;18.122;2023-07-08T02:49:22;99781.47;;;14.99;72.39
62703;BME280;66022;50.448;18.122;2023-07-08T02:53:23;99781.02;;;15.00;71.73
62703;BME280;66022;50.448;18.122;2023-07-08T02:57:26;99781.33;;;14.98;74.04
62703;BME280;66022;50.448;18.122;2023-07-08T03:01:28;99781.72;;;14.99;71.66
62703;BME280;66022;50.448;18.122;2023-07-08T03:05:31;99781.29;;;15.00;71.87
62703;BME280;66022;50.448;18.122;2023-07-08T03:09:32;99780.63;;;15.01;71.89
62703;BME280;66022;50.448;18.122;2023-07-08T03:13:34;99781.37;;;15.05;71.25
62703;BME280;66022;50.448;18.122;2023-07-08T03:17:36;99782.01;;;15.09;72.85
62703;BME280;66022;50.448;18.122;2023-07-08T03:21:38;99782.81;;;15.15;71.06
62703;BME280;66022;50.448;18.122;2023-07-08T03:25:40;99783.04;;;15.21;70.55
62703;BME280;66022;50.448;18.122;2023-07-08T03:29:42;99783.84;;;15.23;71.66
62703;BME280;66022;50.448;18.122;2023-07-08T03:33:44;99784.25;;;15.23;71.12
62703;BME280;66022;50.448;18.122;2023-07-08T03:37:46;99785.00;;;15.21;73.31
62703;BME280;66022;50.448;18.122;2023-07-08T03:41:48;99785.08;;;15.19;71.93
62703;BME280;66022;50.448;18.122;2023-07-08T03:45:50;99785.58;;;15.16;71.30
62703;BME280;66022;50.448;18.122;2023-07-08T03:49:52;99787.01;;;15.19;71.12
62703;BME280;66022;50.448;18.122;2023-07-08T03:53:54;99786.46;;;15.28;70.59
62703;BME280;66022;50.448;18.122;2023-07-08T03:57:56;99786.72;;;15.40;71.03
62703;BME280;66022;50.448;18.122;2023-07-08T04:01:58;99785.91;;;15.57;69.34
62703;BME280;66022;50.448;18.122;2023-07-08T04:06:00;99785.21;;;15.73;73.91
62703;BME280;66022;50.448;18.122;2023-07-08T04:10:02;99785.41;;;15.92;69.66
62703;BME280;66022;50.448;18.122;2023-07-08T04:14:04;99786.90;;;16.14;69.33
62703;BME280;66022;50.448;18.122;2023-07-08T04:18:06;99788.22;;;16.38;70.21
62703;BME280;66022;50.448;18.122;2023-07-08T04:22:08;99788.22;;;16.69;67.98
62703;BME280;66022;50.448;18.122;2023-07-08T04:26:10;99787.38;;;17.02;71.97
62703;BME280;66022;50.448;18.122;2023-07-08T04:30:18;99787.11;;;17.39;67.05
62703;BME280;66022;50.448;18.122;2023-07-08T04:34:14;99786.97;;;17.80;66.35
62703;BME280;66022;50.448;18.122;2023-07-08T04:38:18;99786.45;;;18.23;65.19
62703;BME280;66022;50.448;18.122;2023-07-08T04:42:18;99784.41;;;18.79;62.11
62703;BME280;66022;50.448;18.122;2023-07-08T04:46:23;99782.30;;;19.44;61.88
62703;BME280;66022;50.448;18.122;2023-07-08T04:50:26;99779.38;;;20.57;52.32
62703;BME280;66022;50.448;18.122;2023-07-08T04:54:24;99777.62;;;22.17;46.46
62703;BME280;66022;50.448;18.122;2023-07-08T04:58:26;99776.45;;;23.84;42.64
62703;BME280;66022;50.448;18.122;2023-07-08T05:02:28;99774.67;;;25.68;39.76
62703;BME280;66022;50.448;18.122;2023-07-08T05:06:31;99771.70;;;27.23;36.47
62703;BME280;66022;50.448;18.122;2023-07-08T05:10:32;99769.67;;;28.85;36.51
62703;BME280;66022;50.448;18.122;2023-07-08T05:14:34;99767.31;;;30.37;35.37
62703;BME280;66022;50.448;18.122;2023-07-08T05:18:36;99764.47;;;31.51;34.79
62703;BME280;66022;50.448;18.122;2023-07-08T05:22:38;99763.50;;;32.65;33.89
62703;BME280;66022;50.448;18.122;2023-07-08T05:26:40;99762.61;;;33.43;33.08
62703;BME280;66022;50.448;18.122;2023-07-08T05:30:42;99762.28;;;34.16;34.13
62703;BME280;66022;50.448;18.122;2023-07-08T05:34:44;99762.87;;;34.80;34.13
62703;BME280;66022;50.448;18.122;2023-07-08T05:38:46;99761.61;;;35.10;34.24
62703;BME280;66022;50.448;18.122;2023-07-08T05:42:48;99760.90;;;35.42;34.21
62703;BME280;66022;50.448;18.122;2023-07-08T05:46:50;99759.81;;;35.50;34.32
62703;BME280;66022;50.448;18.122;2023-07-08T05:50:52;99759.46;;;35.49;36.18
62703;BME280;66022;50.448;18.122;2023-07-08T05:54:54;99760.58;;;35.32;37.53
62703;BME280;66022;50.448;18.122;2023-07-08T05:58:56;99761.86;;;35.00;37.41
62703;BME280;66022;50.448;18.122;2023-07-08T06:02:58;99763.79;;;34.66;39.09
62703;BME280;66022;50.448;18.122;2023-07-08T06:07:00;99765.77;;;34.23;38.22
62703;BME280;66022;50.448;18.122;2023-07-08T06:11:02;99767.24;;;33.88;39.04
62703;BME280;66022;50.448;18.122;2023-07-08T06:15:05;99769.46;;;33.59;40.20
62703;BME280;66022;50.448;18.122;2023-07-08T06:19:06;99771.52;;;33.30;39.60
62703;BME280;66022;50.448;18.122;2023-07-08T06:23:08;99773.66;;;33.14;39.81
62703;BME280;66022;50.448;18.122;2023-07-08T06:27:10;99775.80;;;32.92;38.73
62703;BME280;66022;50.448;18.122;2023-07-08T06:31:12;99778.22;;;32.72;39.42
62703;BME280;66022;50.448;18.122;2023-07-08T06:35:15;99779.30;;;32.56;39.75
62703;BME280;66022;50.448;18.122;2023-07-08T06:39:17;99778.77;;;32.38;39.31
62703;BME280;66022;50.448;18.122;2023-07-08T06:43:19;99778.03;;;32.28;39.92
62703;BME280;66022;50.448;18.122;2023-07-08T06:47:21;99777.11;;;32.20;39.24
62703;BME280;66022;50.448;18.122;2023-07-08T06:51:22;99776.68;;;32.17;39.58
62703;BME280;66022;50.448;18.122;2023-07-08T06:55:24;99776.42;;;32.12;39.07
62703;BME280;66022;50.448;18.122;2023-07-08T06:59:26;99777.03;;;32.02;40.16
62703;BME280;66022;50.448;18.122;2023-07-08T07:03:29;99778.66;;;32.01;40.08
62703;BME280;66022;50.448;18.122;2023-07-08T07:07:31;99778.26;;;31.98;38.44
62703;BME280;66022;50.448;18.122;2023-07-08T07:11:32;99777.84;;;31.96;39.77
62703;BME280;66022;50.448;18.122;2023-07-08T07:15:34;99779.25;;;31.98;40.00
62703;BME280;66022;50.448;18.122;2023-07-08T07:19:37;99781.80;;;31.98;39.29
62703;BME280;66022;50.448;18.122;2023-07-08T07:23:38;99784.76;;;32.02;39.13
62703;BME280;66022;50.448;18.122;2023-07-08T07:27:40;99786.61;;;32.06;38.39
62703;BME280;66022;50.448;18.122;2023-07-08T07:31:42;99787.48;;;32.12;37.99
62703;BME280;66022;50.448;18.122;2023-07-08T07:35:45;99788.16;;;32.19;39.08
62703;BME280;66022;50.448;18.122;2023-07-08T07:39:46;99790.01;;;32.26;36.33
62703;BME280;66022;50.448;18.122;2023-07-08T07:43:48;99792.13;;;32.35;36.48
62703;BME280;66022;50.448;18.122;2023-07-08T07:47:50;99793.45;;;32.40;37.31
62703;BME280;66022;50.448;18.122;2023-07-08T07:51:52;99795.23;;;32.47;36.83
62703;BME280;66022;50.448;18.122;2023-07-08T07:55:58;99795.93;;;32.53;33.04
62703;BME280;66022;50.448;18.122;2023-07-08T07:59:56;99797.05;;;32.60;36.03
62703;BME280;66022;50.448;18.122;2023-07-08T08:03:58;99798.03;;;32.67;36.86
62703;BME280;66022;50.448;18.122;2023-07-08T08:08:00;99799.52;;;32.66;35.14
62703;BME280;66022;50.448;18.122;2023-07-08T08:12:03;99799.84;;;32.71;37.02
62703;BME280;66022;50.448;18.122;2023-07-08T08:16:05;99799.28;;;32.73;32.28
62703;BME280;66022;50.448;18.122;2023-07-08T08:20:07;99797.49;;;32.82;35.86
62703;BME280;66022;50.448;18.122;2023-07-08T08:24:09;99795.98;;;32.91;34.86
62703;BME280;66022;50.448;18.122;2023-07-08T08:28:11;99795.62;;;32.91;35.47
62703;BME280;66022;50.448;18.122;2023-07-08T08:32:13;99794.39;;;32.98;35.61
62703;BME280;66022;50.448;18.122;2023-07-08T08:36:15;99794.16;;;32.97;30.60
62703;BME280;66022;50.448;18.122;2023-07-08T08:40:17;99792.50;;;33.02;34.40
62703;BME280;66022;50.448;18.122;2023-07-08T08:44:22;99791.96;;;33.07;35.02
62703;BME280;66022;50.448;18.122;2023-07-08T08:48:21;99791.23;;;33.02;33.05
62703;BME280;66022;50.448;18.122;2023-07-08T08:52:23;99789.51;;;33.07;34.00
62703;BME280;66022;50.448;18.122;2023-07-08T08:56:28;99786.08;;;33.06;30.30
62703;BME280;66022;50.448;18.122;2023-07-08T09:00:32;99783.82;;;33.11;32.87
62703;BME280;66022;50.448;18.122;2023-07-08T09:04:32;99780.39;;;33.16;34.44
62703;BME280;66022;50.448;18.122;2023-07-08T09:08:32;99778.59;;;33.14;33.32
62703;BME280;66022;50.448;18.122;2023-07-08T09:12:33;99777.06;;;33.20;32.31
62703;BME280;66022;50.448;18.122;2023-07-08T09:20:37;99773.33;;;33.19;32.75
62703;BME280;66022;50.448;18.122;2023-07-08T09:28:42;99768.81;;;33.19;32.67
62703;BME280;66022;50.448;18.122;2023-07-08T09:32:43;99766.08;;;33.22;33.24
62703;BME280;66022;50.448;18.122;2023-07-08T09:36:46;99762.29;;;33.15;31.09
62703;BME280;66022;50.448;18.122;2023-07-08T09:40:48;99759.48;;;33.15;32.41
62703;BME280;66022;50.448;18.122;2023-07-08T09:44:53;99757.08;;;33.17;31.14
62703;BME280;66022;50.448;18.122;2023-07-08T09:48:51;99756.17;;;33.15;30.95
62703;BME280;66022;50.448;18.122;2023-07-08T09:52:55;99753.17;;;33.18;30.78
62703;BME280;66022;50.448;18.122;2023-07-08T09:56:58;99751.20;;;33.16;30.86
62703;BME280;66022;50.448;18.122;2023-07-08T10:00:58;99749.94;;;33.19;31.83
62703;BME280;66022;50.448;18.122;2023-07-08T10:05:01;99748.28;;;33.23;32.71
62703;BME280;66022;50.448;18.122;2023-07-08T10:09:05;99746.56;;;33.18;32.47
62703;BME280;66022;50.448;18.122;2023-07-08T10:13:04;99742.07;;;33.23;33.05
62703;BME280;66022;50.448;18.122;2023-07-08T10:17:05;99738.75;;;33.24;29.33
62703;BME280;66022;50.448;18.122;2023-07-08T10:33:28;99724.00;;;33.28;32.03
62703;BME280;66022;50.448;18.122;2023-07-08T10:41:22;99721.43;;;33.19;30.95
62703;BME280;66022;50.448;18.122;2023-07-08T10:45:21;99718.80;;;33.16;32.45
62703;BME280;66022;50.448;18.122;2023-07-08T11:05:36;99705.86;;;33.14;31.76
62703;BME280;66022;50.448;18.122;2023-07-08T11:13:34;99699.19;;;33.08;31.46
62703;BME280;66022;50.448;18.122;2023-07-08T11:17:40;99696.03;;;33.03;29.53
62703;BME280;66022;50.448;18.122;2023-07-08T11:21:39;99694.45;;;32.99;30.64
62703;BME280;66022;50.448;18.122;2023-07-08T11:25:39;99692.42;;;32.96;30.99
62703;BME280;66022;50.448;18.122;2023-07-08T11:29:45;99690.19;;;32.91;31.33
62703;BME280;66022;50.448;18.122;2023-07-08T11:33:43;99686.02;;;32.90;31.35
62703;BME280;66022;50.448;18.122;2023-07-08T11:37:45;99683.31;;;32.86;29.41
62703;BME280;66022;50.448;18.122;2023-07-08T11:41:47;99680.36;;;32.85;30.04
62703;BME280;66022;50.448;18.122;2023-07-08T11:45:50;99678.49;;;32.81;31.38
62703;BME280;66022;50.448;18.122;2023-07-08T11:49:51;99677.20;;;32.71;30.10
62703;BME280;66022;50.448;18.122;2023-07-08T11:57:55;99674.71;;;32.51;29.49
62703;BME280;66022;50.448;18.122;2023-07-08T12:02:01;99672.48;;;32.40;29.55
62703;BME280;66022;50.448;18.122;2023-07-08T12:05:59;99671.54;;;32.28;30.00
62703;BME280;66022;50.448;18.122;2023-07-08T12:10:06;99669.24;;;32.12;30.97
62703;BME280;66022;50.448;18.122;2023-07-08T12:14:03;99667.07;;;32.02;30.70
62703;BME280;66022;50.448;18.122;2023-07-08T12:22:08;99662.53;;;31.86;27.89
62703;BME280;66022;50.448;18.122;2023-07-08T12:26:09;99659.75;;;31.81;25.22
62703;BME280;66022;50.448;18.122;2023-07-08T12:30:12;99656.34;;;31.76;29.55
62703;BME280;66022;50.448;18.122;2023-07-08T12:34:14;99653.33;;;31.72;30.77
62703;BME280;66022;50.448;18.122;2023-07-08T12:42:17;99647.19;;;31.63;31.17
62703;BME280;66022;50.448;18.122;2023-07-08T12:46:20;99643.33;;;31.56;24.92
62703;BME280;66022;50.448;18.122;2023-07-08T12:50:21;99640.31;;;31.51;26.19
62703;BME280;66022;50.448;18.122;2023-07-08T12:54:23;99639.29;;;31.44;29.16
62703;BME280;66022;50.448;18.122;2023-07-08T12:58:27;99635.47;;;31.24;25.77
62703;BME280;66022;50.448;18.122;2023-07-08T13:02:28;99630.92;;;31.11;32.18
62703;BME280;66022;50.448;18.122;2023-07-08T13:06:30;99627.42;;;31.02;26.26
62703;BME280;66022;50.448;18.122;2023-07-08T13:10:32;99624.44;;;30.99;31.50
62703;BME280;66022;50.448;18.122;2023-07-08T13:14:34;99620.94;;;31.01;31.32
62703;BME280;66022;50.448;18.122;2023-07-08T13:18:36;99617.21;;;30.99;31.05
62703;BME280;66022;50.448;18.122;2023-07-08T13:22:37;99614.23;;;31.04;30.96
62703;BME280;66022;50.448;18.122;2023-07-08T13:26:39;99612.31;;;31.02;25.89
62703;BME280;66022;50.448;18.122;2023-07-08T13:30:49;99610.61;;;31.06;30.04
62703;BME280;66022;50.448;18.122;2023-07-08T13:34:44;99609.06;;;31.10;30.18
62703;BME280;66022;50.448;18.122;2023-07-08T13:38:46;99606.58;;;31.07;31.29
62703;BME280;66022;50.448;18.122;2023-07-08T13:42:51;99604.94;;;31.11;31.78
62703;BME280;66022;50.448;18.122;2023-07-08T13:46:53;99602.40;;;31.10;29.79
62703;BME280;66022;50.448;18.122;2023-07-08T13:54:57;99597.17;;;31.20;31.73
62703;BME280;66022;50.448;18.122;2023-07-08T14:02:58;99590.53;;;31.28;30.25
62703;BME280;66022;50.448;18.122;2023-07-08T14:07:00;99587.73;;;31.25;28.76
62703;BME280;66022;50.448;18.122;2023-07-08T14:11:02;99585.50;;;31.23;27.55
62703;BME280;66022;50.448;18.122;2023-07-08T14:15:04;99583.22;;;31.15;29.03
62703;BME280;66022;50.448;18.122;2023-07-08T14:19:06;99580.28;;;31.03;31.51
62703;BME280;66022;50.448;18.122;2023-07-08T14:23:08;99577.27;;;30.97;32.11
62703;BME280;66022;50.448;18.122;2023-07-08T14:27:10;99574.83;;;30.88;30.21
62703;BME280;66022;50.448;18.122;2023-07-08T14:31:12;99571.06;;;30.83;30.93
62703;BME280;66022;50.448;18.122;2023-07-08T14:35:18;99567.56;;;30.82;32.39
62703;BME280;66022;50.448;18.122;2023-07-08T14:39:16;99563.78;;;30.83;31.70
62703;BME280;66022;50.448;18.122;2023-07-08T14:43:18;99561.00;;;30.89;32.47
62703;BME280;66022;50.448;18.122;2023-07-08T14:47:20;99557.98;;;30.90;30.36
62703;BME280;66022;50.448;18.122;2023-07-08T14:51:22;99556.23;;;30.93;31.58
62703;BME280;66022;50.448;18.122;2023-07-08T14:55:24;99554.03;;;30.94;31.63
62703;BME280;66022;50.448;18.122;2023-07-08T14:59:27;99550.69;;;30.87;32.04
62703;BME280;66022;50.448;18.122;2023-07-08T15:03:28;99548.49;;;30.82;32.85
62703;BME280;66022;50.448;18.122;2023-07-08T15:07:30;99546.67;;;30.74;31.59
62703;BME280;66022;50.448;18.122;2023-07-08T15:11:32;99545.70;;;30.69;32.68
62703;BME280;66022;50.448;18.122;2023-07-08T15:15:34;99544.70;;;30.67;32.64
62703;BME280;66022;50.448;18.122;2023-07-08T15:19:36;99543.09;;;30.65;31.77
62703;BME280;66022;50.448;18.122;2023-07-08T15:23:38;99542.13;;;30.67;32.88
62703;BME280;66022;50.448;18.122;2023-07-08T15:27:41;99539.70;;;30.67;31.81
62703;BME280;66022;50.448;18.122;2023-07-08T15:31:42;99537.99;;;30.68;32.06
62703;BME280;66022;50.448;18.122;2023-07-08T15:35:44;99535.47;;;30.69;32.75
62703;BME280;66022;50.448;18.122;2023-07-08T15:39:46;99534.35;;;30.68;33.23
62703;BME280;66022;50.448;18.122;2023-07-08T15:43:48;99532.32;;;30.69;33.41
62703;BME280;66022;50.448;18.122;2023-07-08T15:47:50;99530.11;;;30.66;32.74
62703;BME280;66022;50.448;18.122;2023-07-08T15:51:52;99528.69;;;30.65;34.07
62703;BME280;66022;50.448;18.122;2023-07-08T15:55:54;99527.61;;;30.63;32.05
62703;BME280;66022;50.448;18.122;2023-07-08T15:59:56;99525.90;;;30.56;32.93
62703;BME280;66022;50.448;18.122;2023-07-08T16:03:58;99523.89;;;30.53;34.33
62703;BME280;66022;50.448;18.122;2023-07-08T16:08:00;99523.50;;;30.49;33.42
62703;BME280;66022;50.448;18.122;2023-07-08T16:12:02;99523.08;;;30.47;33.53
62703;BME280;66022;50.448;18.122;2023-07-08T16:16:04;99521.95;;;30.45;31.59
62703;BME280;66022;50.448;18.122;2023-07-08T16:20:18;99521.88;;;30.41;33.89
62703;BME280;66022;50.448;18.122;2023-07-08T16:24:08;99520.51;;;30.36;33.46
62703;BME280;66022;50.448;18.122;2023-07-08T16:28:51;99518.29;;;30.26;33.13
62703;BME280;66022;50.448;18.122;2023-07-08T16:32:12;99516.23;;;30.19;34.65
62703;BME280;66022;50.448;18.122;2023-07-08T16:36:15;99514.45;;;30.11;30.61
62703;BME280;66022;50.448;18.122;2023-07-08T16:40:19;99512.36;;;30.06;36.24
62703;BME280;66022;50.448;18.122;2023-07-08T16:44:18;99509.60;;;30.01;36.92
62703;BME280;66022;50.448;18.122;2023-07-08T16:48:20;99507.76;;;29.91;36.57
62703;BME280;66022;50.448;18.122;2023-07-08T16:52:25;99505.35;;;29.87;37.11
62703;BME280;66022;50.448;18.122;2023-07-08T16:56:26;99502.68;;;29.78;34.09
62703;BME280;66022;50.448;18.122;2023-07-08T17:00:26;99500.92;;;29.71;37.15
62703;BME280;66022;50.448;18.122;2023-07-08T17:04:31;99500.73;;;29.62;35.20
62703;BME280;66022;50.448;18.122;2023-07-08T17:08:33;99499.98;;;29.45;36.39
62703;BME280;66022;50.448;18.122;2023-07-08T17:12:35;99499.20;;;29.37;36.28
62703;BME280;66022;50.448;18.122;2023-07-08T17:16:37;99499.27;;;29.24;33.29
62703;BME280;66022;50.448;18.122;2023-07-08T17:20:39;99500.48;;;29.16;37.01
62703;BME280;66022;50.448;18.122;2023-07-08T17:24:41;99500.92;;;29.07;38.13
62703;BME280;66022;50.448;18.122;2023-07-08T17:28:43;99503.29;;;28.93;37.38
62703;BME280;66022;50.448;18.122;2023-07-08T17:32:46;99504.33;;;28.83;38.07
62703;BME280;66022;50.448;18.122;2023-07-08T17:36:47;99505.81;;;28.67;37.69
62703;BME280;66022;50.448;18.122;2023-07-08T17:40:49;99506.69;;;28.55;38.40
62703;BME280;66022;50.448;18.122;2023-07-08T17:44:51;99506.84;;;28.44;39.56
62703;BME280;66022;50.448;18.122;2023-07-08T17:48:53;99506.47;;;28.30;41.69
62703;BME280;66022;50.448;18.122;2023-07-08T17:52:56;99506.80;;;28.23;41.84
62703;BME280;66022;50.448;18.122;2023-07-08T17:56:57;99506.48;;;28.12;42.09
62703;BME280;66022;50.448;18.122;2023-07-08T18:00:59;99505.50;;;28.06;42.72
62703;BME280;66022;50.448;18.122;2023-07-08T18:05:01;99504.83;;;27.99;44.22
62703;BME280;66022;50.448;18.122;2023-07-08T18:09:03;99504.75;;;27.84;45.28
62703;BME280;66022;50.448;18.122;2023-07-08T18:13:07;99503.87;;;27.73;45.81
62703;BME280;66022;50.448;18.122;2023-07-08T18:17:07;99505.36;;;27.57;46.68
62703;BME280;66022;50.448;18.122;2023-07-08T18:21:13;99506.80;;;27.44;46.47
62703;BME280;66022;50.448;18.122;2023-07-08T18:25:15;99507.50;;;27.29;47.43
62703;BME280;66022;50.448;18.122;2023-07-08T18:29:13;99508.86;;;27.14;49.83
62703;BME280;66022;50.448;18.122;2023-07-08T18:33:16;99509.93;;;27.04;48.22
62703;BME280;66022;50.448;18.122;2023-07-08T18:37:18;99510.55;;;26.92;49.18
62703;BME280;66022;50.448;18.122;2023-07-08T18:41:20;99512.17;;;26.80;48.72
62703;BME280;66022;50.448;18.122;2023-07-08T18:45:21;99512.50;;;26.66;48.27
62703;BME280;66022;50.448;18.122;2023-07-08T18:49:23;99513.95;;;26.50;49.41
62703;BME280;66022;50.448;18.122;2023-07-08T18:53:25;99514.84;;;26.37;50.08
62703;BME280;66022;50.448;18.122;2023-07-08T18:57:27;99516.32;;;26.23;50.46
62703;BME280;66022;50.448;18.122;2023-07-08T19:01:29;99517.60;;;26.09;49.97
62703;BME280;66022;50.448;18.122;2023-07-08T19:05:31;99518.93;;;25.96;50.92
62703;BME280;66022;50.448;18.122;2023-07-08T19:09:33;99520.75;;;25.82;48.42
62703;BME280;66022;50.448;18.122;2023-07-08T19:13:35;99523.56;;;25.71;46.76
62703;BME280;66022;50.448;18.122;2023-07-08T19:17:37;99527.04;;;25.57;46.23
62703;BME280;66022;50.448;18.122;2023-07-08T19:21:39;99530.00;;;25.45;45.68
62703;BME280;66022;50.448;18.122;2023-07-08T19:25:41;99531.74;;;25.32;45.47
62703;BME280;66022;50.448;18.122;2023-07-08T19:29:44;99534.48;;;25.15;45.60
62703;BME280;66022;50.448;18.122;2023-07-08T19:33:46;99537.51;;;24.96;45.73
62703;BME280;66022;50.448;18.122;2023-07-08T19:37:47;99540.45;;;24.74;45.52
62703;BME280;66022;50.448;18.122;2023-07-08T19:41:49;99542.08;;;24.58;45.10
62703;BME280;66022;50.448;18.122;2023-07-08T19:45:52;99542.78;;;24.44;44.88
62703;BME280;66022;50.448;18.122;2023-07-08T19:49:53;99543.84;;;24.33;46.42
62703;BME280;66022;50.448;18.122;2023-07-08T19:53:57;99544.42;;;24.22;46.71
62703;BME280;66022;50.448;18.122;2023-07-08T19:57:57;99545.11;;;24.07;48.26
62703;BME280;66022;50.448;18.122;2023-07-08T20:01:59;99545.09;;;23.91;48.16
62703;BME280;66022;50.448;18.122;2023-07-08T20:10:04;99546.37;;;23.60;49.77
62703;BME280;66022;50.448;18.122;2023-07-08T20:14:06;99548.14;;;23.46;50.13
62703;BME280;66022;50.448;18.122;2023-07-08T20:18:11;99549.58;;;23.26;51.45
62703;BME280;66022;50.448;18.122;2023-07-08T20:22:12;99551.67;;;23.14;49.58
62703;BME280;66022;50.448;18.122;2023-07-08T20:30:20;99553.99;;;22.95;49.93
62703;BME280;66022;50.448;18.122;2023-07-08T20:34:15;99555.75;;;22.90;48.64
62703;BME280;66022;50.448;18.122;2023-07-08T20:38:18;99556.68;;;22.83;49.10
62703;BME280;66022;50.448;18.122;2023-07-08T20:42:19;99559.52;;;22.80;51.05
62703;BME280;66022;50.448;18.122;2023-07-08T20:46:23;99561.35;;;22.69;54.62
62703;BME280;66022;50.448;18.122;2023-07-08T20:50:24;99564.12;;;22.63;52.02
62703;BME280;66022;50.448;18.122;2023-07-08T20:54:25;99566.99;;;22.55;52.12
62703;BME280;66022;50.448;18.122;2023-07-08T20:58:28;99569.28;;;22.40;52.49
62703;BME280;66022;50.448;18.122;2023-07-08T21:02:29;99572.32;;;22.33;51.61
62703;BME280;66022;50.448;18.122;2023-07-08T21:06:31;99574.41;;;22.23;55.52
62703;BME280;66022;50.448;18.122;2023-07-08T21:10:33;99575.84;;;22.17;53.80
62703;BME280;66022;50.448;18.122;2023-07-08T21:14:36;99578.02;;;22.10;53.61
62703;BME280;66022;50.448;18.122;2023-07-08T21:18:37;99579.41;;;21.97;52.59
62703;BME280;66022;50.448;18.122;2023-07-08T21:22:40;99580.74;;;21.94;51.82
62703;BME280;66022;50.448;18.122;2023-07-08T21:26:42;99582.12;;;21.86;56.65
62703;BME280;66022;50.448;18.122;2023-07-08T21:30:43;99582.82;;;21.82;52.78
62703;BME280;66022;50.448;18.122;2023-07-08T21:34:46;99584.36;;;21.80;53.58
62703;BME280;66022;50.448;18.122;2023-07-08T21:38:47;99584.99;;;21.73;54.64
62703;BME280;66022;50.448;18.122;2023-07-08T21:42:49;99585.83;;;21.69;54.83
62703;BME280;66022;50.448;18.122;2023-07-08T21:46:52;99586.22;;;21.60;57.78
62703;BME280;66022;50.448;18.122;2023-07-08T21:50:54;99586.16;;;21.52;56.27
62703;BME280;66022;50.448;18.122;2023-07-08T21:54:55;99586.27;;;21.47;55.56
62703;BME280;66022;50.448;18.122;2023-07-08T21:58:58;99586.91;;;21.40;55.89
62703;BME280;66022;50.448;18.122;2023-07-08T22:02:59;99587.69;;;21.35;55.77
62703;BME280;66022;50.448;18.122;2023-07-08T22:07:02;99588.36;;;21.27;57.80
62703;BME280;66022;50.448;18.122;2023-07-08T22:11:05;99589.04;;;21.22;55.47
62703;BME280;66022;50.448;18.122;2023-07-08T22:15:16;99589.12;;;21.16;56.27
62703;BME280;66022;50.448;18.122;2023-07-08T22:19:08;99589.81;;;21.07;57.13